Sea Rider — WDI2682 — position and weather

sailwx.info

Track history (hours):
 
Tides and Currents Weather Stations Pressure Air Temp Water Temp Dewpoint Dewpoint Depression Visibility Wind Speed Wind Dir Waves Ship Positions

Sea Rider

Owner: Versaggi Shrimp Corp, Tampa, FL. More information available from US FCC via Universal Licensing System and Coast Guard Vessel Documentation Center.

Last reported at 2017-Nov-18 00:39 UTC. Time now 2017-Nov-20 15:29 UTC.
Position N 27°45' W 082°32'.

MMSI: 367680650.

Date/timePositionNaut miles runAvg speedWind from/ knotsBaromVisibWave heightAir tempDewpointWater temp
2017-Nov-18 00:39N 27°45' W 082°32'1 8.5
2017-Nov-18 00:30N 27°47' W 082°31'4 7.6
2017-Nov-18 00:00N 27°48' W 082°27'3 5.6
2017-Nov-17 23:30N 27°51' W 082°26'2 3.9
2017-Nov-17 23:01N 27°53' W 082°27'3 6.3
2017-Nov-17 22:30N 27°56' W 082°26'0 0.0
2017-Nov-17 22:01N 27°56' W 082°26'0 0.0
2017-Nov-17 21:30N 27°56' W 082°26'0 0.0
2017-Nov-16 23:53N 27°56' W 082°26'0 0.0
2017-Nov-16 23:30N 27°56' W 082°26'0 0.0
2017-Nov-16 23:00N 27°56' W 082°26'0 0.0
2017-Nov-16 22:30N 27°56' W 082°26'0 0.0
2017-Nov-16 22:00N 27°56' W 082°26'0 0.0
2017-Nov-16 21:30N 27°56' W 082°26'0 0.0
2017-Nov-16 21:00N 27°56' W 082°26'0 0.0
2017-Nov-16 20:30N 27°56' W 082°26'0 0.0
2017-Nov-16 20:00N 27°56' W 082°26'0 0.0
2017-Nov-16 19:30N 27°56' W 082°26'0 0.0
2017-Nov-16 19:00N 27°56' W 082°26'0 0.0
2017-Nov-16 18:30N 27°56' W 082°26'0 0.0
2017-Nov-16 18:00N 27°56' W 082°26'0 0.0
2017-Nov-16 17:30N 27°56' W 082°26'0 0.0
2017-Nov-16 17:00N 27°56' W 082°26'0 0.0
2017-Nov-16 16:30N 27°56' W 082°26'0 0.0
2017-Nov-16 16:00N 27°56' W 082°26'0 0.0
2017-Nov-16 15:30N 27°56' W 082°26'0 0.0
2017-Nov-16 05:33N 27°56' W 082°26'0 0.0
2017-Nov-16 05:30N 27°56' W 082°26'0 0.0
2017-Nov-16 05:00N 27°56' W 082°26'0 0.0
2017-Nov-16 04:30N 27°56' W 082°26'0 0.0
2017-Nov-16 04:00N 27°56' W 082°26'0 0.0
2017-Nov-16 03:30N 27°56' W 082°26'0 0.0
2017-Nov-16 03:00N 27°56' W 082°26'0 0.0
2017-Nov-16 02:30N 27°56' W 082°26'0 0.0
2017-Nov-16 02:00N 27°56' W 082°26'0 0.0
2017-Nov-16 01:30N 27°56' W 082°26'0 0.0
2017-Nov-16 01:00N 27°56' W 082°26'0 0.0
2017-Nov-16 00:30N 27°56' W 082°26'0 0.0
2017-Nov-16 00:00N 27°56' W 082°26'0 0.0
2017-Nov-15 23:30N 27°56' W 082°26'0 0.0
2017-Nov-15 23:00N 27°56' W 082°26'0 0.0
2017-Nov-14 20:09N 27°56' W 082°26'0 0.1
2017-Nov-14 20:00N 27°56' W 082°26'0 0.0
2017-Nov-14 19:30N 27°56' W 082°26'0 0.9
2017-Nov-14 19:00N 27°55' W 082°25'0 0.6
2017-Nov-14 18:30N 27°56' W 082°26'0 0.4
2017-Nov-14 18:00N 27°56' W 082°26'0 0.0
2017-Nov-14 17:30N 27°56' W 082°26'0 0.0
2017-Nov-14 17:00N 27°56' W 082°26'0 0.0
2017-Nov-14 16:30N 27°56' W 082°26'0 0.0
2017-Nov-14 16:00N 27°56' W 082°26'0 0.0
2017-Nov-14 15:30N 27°56' W 082°26'0 0.0
2017-Nov-14 15:00N 27°56' W 082°26'0 0.0
2017-Nov-14 14:30N 27°56' W 082°26'0 0.0
2017-Nov-14 14:00N 27°56' W 082°26'0 0.0
2017-Nov-14 13:30N 27°56' W 082°26'0 0.0
2017-Nov-14 13:00N 27°56' W 082°26'0 0.0
2017-Nov-14 12:30N 27°56' W 082°26'0 0.0
2017-Nov-14 12:00N 27°56' W 082°26'0 0.0
2017-Nov-14 11:30N 27°56' W 082°26'3 6.6
2017-Nov-14 11:00N 27°52' W 082°27'2 4.3
2017-Nov-14 10:30N 27°50' W 082°27'3 6.8
2017-Nov-14 10:00N 27°48' W 082°29'4 8.6
2017-Nov-14 09:30N 27°44' W 082°32'  
Track history (hours):
 
Tides and Currents Weather Stations Pressure Air Temp Water Temp Dewpoint Dewpoint Depression Visibility Wind Speed Wind Dir Waves Ship Positions

Sea Rider

Owner: Versaggi Shrimp Corp, Tampa, FL. More information available from US FCC via Universal Licensing System and Coast Guard Vessel Documentation Center.

Last reported at 2017-Nov-18 00:39 UTC. Time now 2017-Nov-20 15:29 UTC.
Position N 27°45' W 082°32'.

MMSI: 367680650.

Date/timePositionNaut miles runAvg speedWind from/ knotsBaromVisibWave heightAir tempDewpointWater temp
2017-Nov-18 00:39N 27°45' W 082°32'1 8.5
2017-Nov-18 00:30N 27°47' W 082°31'4 7.6
2017-Nov-18 00:00N 27°48' W 082°27'3 5.6
2017-Nov-17 23:30N 27°51' W 082°26'2 3.9
2017-Nov-17 23:01N 27°53' W 082°27'3 6.3
2017-Nov-17 22:30N 27°56' W 082°26'0 0.0
2017-Nov-17 22:01N 27°56' W 082°26'0 0.0
2017-Nov-17 21:30N 27°56' W 082°26'0 0.0
2017-Nov-16 23:53N 27°56' W 082°26'0 0.0
2017-Nov-16 23:30N 27°56' W 082°26'0 0.0
2017-Nov-16 23:00N 27°56' W 082°26'0 0.0
2017-Nov-16 22:30N 27°56' W 082°26'0 0.0
2017-Nov-16 22:00N 27°56' W 082°26'0 0.0
2017-Nov-16 21:30N 27°56' W 082°26'0 0.0
2017-Nov-16 21:00N 27°56' W 082°26'0 0.0
2017-Nov-16 20:30N 27°56' W 082°26'0 0.0
2017-Nov-16 20:00N 27°56' W 082°26'0 0.0
2017-Nov-16 19:30N 27°56' W 082°26'0 0.0
2017-Nov-16 19:00N 27°56' W 082°26'0 0.0
2017-Nov-16 18:30N 27°56' W 082°26'0 0.0
2017-Nov-16 18:00N 27°56' W 082°26'0 0.0
2017-Nov-16 17:30N 27°56' W 082°26'0 0.0
2017-Nov-16 17:00N 27°56' W 082°26'0 0.0
2017-Nov-16 16:30N 27°56' W 082°26'0 0.0
2017-Nov-16 16:00N 27°56' W 082°26'0 0.0
2017-Nov-16 15:30N 27°56' W 082°26'0 0.0
2017-Nov-16 05:33N 27°56' W 082°26'0 0.0
2017-Nov-16 05:30N 27°56' W 082°26'0 0.0
2017-Nov-16 05:00N 27°56' W 082°26'0 0.0
2017-Nov-16 04:30N 27°56' W 082°26'0 0.0
2017-Nov-16 04:00N 27°56' W 082°26'0 0.0
2017-Nov-16 03:30N 27°56' W 082°26'0 0.0
2017-Nov-16 03:00N 27°56' W 082°26'0 0.0
2017-Nov-16 02:30N 27°56' W 082°26'0 0.0
2017-Nov-16 02:00N 27°56' W 082°26'0 0.0
2017-Nov-16 01:30N 27°56' W 082°26'0 0.0
2017-Nov-16 01:00N 27°56' W 082°26'0 0.0
2017-Nov-16 00:30N 27°56' W 082°26'0 0.0
2017-Nov-16 00:00N 27°56' W 082°26'0 0.0
2017-Nov-15 23:30N 27°56' W 082°26'0 0.0
2017-Nov-15 23:00N 27°56' W 082°26'0 0.0
2017-Nov-14 20:09N 27°56' W 082°26'0 0.1
2017-Nov-14 20:00N 27°56' W 082°26'0 0.0
2017-Nov-14 19:30N 27°56' W 082°26'0 0.9
2017-Nov-14 19:00N 27°55' W 082°25'0 0.6
2017-Nov-14 18:30N 27°56' W 082°26'0 0.4
2017-Nov-14 18:00N 27°56' W 082°26'0 0.0
2017-Nov-14 17:30N 27°56' W 082°26'0 0.0
2017-Nov-14 17:00N 27°56' W 082°26'0 0.0
2017-Nov-14 16:30N 27°56' W 082°26'0 0.0
2017-Nov-14 16:00N 27°56' W 082°26'0 0.0
2017-Nov-14 15:30N 27°56' W 082°26'0 0.0
2017-Nov-14 15:00N 27°56' W 082°26'0 0.0
2017-Nov-14 14:30N 27°56' W 082°26'0 0.0
2017-Nov-14 14:00N 27°56' W 082°26'0 0.0
2017-Nov-14 13:30N 27°56' W 082°26'0 0.0
2017-Nov-14 13:00N 27°56' W 082°26'0 0.0
2017-Nov-14 12:30N 27°56' W 082°26'0 0.0
2017-Nov-14 12:00N 27°56' W 082°26'0 0.0
2017-Nov-14 11:30N 27°56' W 082°26'3 6.6
2017-Nov-14 11:00N 27°52' W 082°27'2 4.3
2017-Nov-14 10:30N 27°50' W 082°27'3 6.8
2017-Nov-14 10:00N 27°48' W 082°29'4 8.6
2017-Nov-14 09:30N 27°44' W 082°32'  

Dump ship's entire track history